Luverne, MN (56156)

4:52 PM CDT on September 02, 2015 (GMT -0500)
Bremer Pond | | Change Station
CLOSE
Current Station
Personal Weather Station
Location: Hardwick, MN
Elevation: 1486 ft
Nearby Weather Stations

Elev 1486 ft 43.79 °N, 96.13 °W | Updated 2 minutes ago

Clear
Clear
85.1 °F
Feels Like 93 °F
N
5.0
Wind Variable Wind from South
Gusts 7.0 mph

Today
High -- | Low -- °F
--% Chance of Precip.
Yesterday
High -- | Low -- °F
Precip. -- in
6:49 AM 7:58 PM
Waning Gibbous, 77% visible
Pressure 29.83 in
Visibility 10.0 miles
Clouds Clear
Heat Index 93 °F
Dew Point 75 °F
Humidity 71%
Rainfall 0.01 in
Snow Depth Not available.
UV 4 out of 12
Pollen 10.40 out of 12
Air Quality Not available.
Flu Activity Not available.
METAR KLYV 022133Z AUTO 18007KT 10SM CLR 30/22 A2983 RMK AO2
Pressure 29.83 in
Visibility 10.0 miles
Clouds Clear
Heat Index 93 °F
Dew Point 75 °F
Humidity 71%
Rainfall 0.01 in
Snow Depth Not available.
UV 4 out of 12
Pollen 10.40 out of 12
Air Quality Not available.
Flu Activity Not available.
METAR KLYV 022133Z AUTO 18007KT 10SM CLR 30/22 A2983 RMK AO2

10-Day Weather Forecast

×

Almanac

Astronomy

Sep. 02, 2015 Rise Set
Actual Time
Civil Twilight
Nautical Twilight
Astronomical Twilight
Moon
Length of Visible Light
Length of Day
Tomorrow will be .
, % of the Moon is Illuminated

Today's Extremes

State Highs State Lows

Community

WunderPhotos

Upload Photos

1,851,818 photos uploaded!

WunderBlogs® & News

Nearby

Air Quality

  Air Quality AQ Index Pollutant
Not available.

Snow Depth

Station Depth Elevation

Earthquake Activity

City Distance Mag. Time & Date
Minimum magnitude displayed is 2.5.

Coastal Water Temperatures

Place Temperature

Stations

Nearby Weather Stations

Station Location Temp. Windchill Dew Point Humidity Wind Precip. Elev Updated Type